createdAt,value
2019-02-12T17:17:33.841Z,13.78
2019-02-12T17:20:02.748Z,17.92
2019-02-12T17:22:31.499Z,16.40
2019-02-12T17:26:16.250Z,22.57
2019-02-12T17:28:42.357Z,17.82
2019-02-12T17:31:12.496Z,20.50
2019-02-12T17:33:43.558Z,16.42
2019-02-12T17:36:13.894Z,16.32
2019-02-12T17:38:43.994Z,25.50
2019-02-12T17:41:14.069Z,24.70
2019-02-12T17:43:44.063Z,24.30
2019-02-12T17:46:14.128Z,27.25
2019-02-12T17:48:44.328Z,27.40
2019-02-12T17:51:14.420Z,26.62
2019-02-12T17:53:44.426Z,26.57
2019-02-12T17:56:14.382Z,30.35
2019-02-12T17:58:44.474Z,27.48
2019-02-12T18:01:14.618Z,22.87
2019-02-12T18:03:46.410Z,21.82
2019-02-12T18:06:23.567Z,25.35
2019-02-12T18:08:53.677Z,25.80
2019-02-12T18:11:23.930Z,29.75
2019-02-12T18:13:54.144Z,24.40
2019-02-12T18:16:27.509Z,22.13
2019-02-12T18:18:57.739Z,28.77
2019-02-12T18:21:27.723Z,24.72
2019-02-12T18:23:57.800Z,36.48
2019-02-12T18:26:33.139Z,23.22
2019-02-12T18:28:59.698Z,27.67
2019-02-12T18:31:29.717Z,26.87
2019-02-12T18:34:00.356Z,22.00
2019-02-12T18:36:30.561Z,20.00
2019-02-12T18:39:00.668Z,23.92
2019-02-12T18:41:32.230Z,25.48
2019-02-12T18:44:02.366Z,33.00
2019-02-12T18:46:32.590Z,25.92
2019-02-12T18:49:02.664Z,21.40
2019-02-12T18:51:32.792Z,27.45
2019-02-12T18:54:04.563Z,37.13
2019-02-12T18:56:41.426Z,25.68
2019-02-12T18:59:11.017Z,30.60
2019-02-12T19:01:47.122Z,34.60
2019-02-12T19:04:38.823Z,25.68
2019-02-12T19:07:09.476Z,36.90
2019-02-12T19:09:41.281Z,39.63
2019-02-12T19:12:11.368Z,38.70
2019-02-12T19:14:41.504Z,36.90
2019-02-12T19:17:13.122Z,36.85
2019-02-12T19:19:43.209Z,33.88
2019-02-12T19:22:13.306Z,35.45
2019-02-12T19:24:44.519Z,39.78
2019-02-12T19:27:15.072Z,35.98
2019-02-12T19:29:45.196Z,46.10
2019-02-12T19:32:15.296Z,43.00
2019-02-12T19:34:45.361Z,43.55
2019-02-12T19:37:15.492Z,45.23
2019-02-12T19:39:45.854Z,48.73
2019-02-12T19:42:16.034Z,48.75
2019-02-12T19:44:46.184Z,46.37
2019-02-12T19:47:16.258Z,46.05
2019-02-12T19:49:46.326Z,42.35
2019-02-12T19:52:16.444Z,35.17
2019-02-12T19:54:46.532Z,42.03
2019-02-12T19:57:16.603Z,42.25
2019-02-12T19:59:46.684Z,43.65
2019-02-12T20:02:16.831Z,49.45
2019-02-12T20:04:46.946Z,52.25
2019-02-12T20:07:16.976Z,48.52
2019-02-12T20:09:47.089Z,45.33
2019-02-12T20:12:17.164Z,51.28
2019-02-12T20:14:54.205Z,45.75
2019-02-12T20:17:24.352Z,58.75
2019-02-12T20:19:54.526Z,59.98
2019-02-12T20:22:24.655Z,67.45
2019-02-12T20:24:54.761Z,77.60
2019-02-12T20:27:24.999Z,62.80
2019-02-12T20:29:55.063Z,60.35
2019-02-12T20:32:25.179Z,54.20
2019-02-12T20:34:55.207Z,50.90
2019-02-12T20:37:25.694Z,57.20
2019-02-12T20:40:08.763Z,47.45
2019-02-12T20:42:38.797Z,55.37
2019-02-12T20:45:34.937Z,56.88
2019-02-12T20:48:05.094Z,49.38
2019-02-12T20:50:44.218Z,47.67
2019-02-12T20:53:14.481Z,49.08
2019-02-12T20:55:44.541Z,48.98
2019-02-12T20:58:32.288Z,41.00
2019-02-12T21:03:56.616Z,39.25
2019-02-12T21:06:26.697Z,39.67
2019-02-12T21:08:56.875Z,39.63
2019-02-12T21:11:49.109Z,37.03
2019-02-12T21:15:00.952Z,42.08
2019-02-12T21:17:32.897Z,40.33
2019-02-12T21:20:02.999Z,41.48
2019-02-12T21:22:43.504Z,50.40
2019-02-12T21:28:43.987Z,34.15
2019-02-12T21:31:14.106Z,34.15
2019-02-12T21:33:44.226Z,34.03
2019-02-12T21:36:14.409Z,42.85
2019-02-12T21:38:44.728Z,44.33
2019-02-12T21:41:39.367Z,36.60
2019-02-12T21:44:00.645Z,39.25
2019-02-12T21:46:30.761Z,41.65
2019-02-12T21:49:01.047Z,39.92
2019-02-12T21:51:33.760Z,45.03
2019-02-12T21:54:21.122Z,44.70
2019-02-12T21:56:51.105Z,44.75
2019-02-12T21:59:21.376Z,36.73
2019-02-12T22:01:51.527Z,38.17
2019-02-12T22:04:21.661Z,39.33
2019-02-12T22:06:51.829Z,43.40
2019-02-12T22:09:21.932Z,41.75
2019-02-12T22:11:52.107Z,45.28
2019-02-12T22:14:22.211Z,36.93
2019-02-12T22:16:53.607Z,40.98
2019-02-12T22:19:23.831Z,40.98
2019-02-12T22:21:54.047Z,40.43
2019-02-12T22:24:24.289Z,45.33
2019-02-12T22:26:54.569Z,35.43
2019-02-12T22:29:24.817Z,31.60
2019-02-12T22:31:54.841Z,38.17
2019-02-12T22:34:26.757Z,38.23
2019-02-12T22:36:56.829Z,40.05
2019-02-12T22:39:26.940Z,47.95
2019-02-12T22:41:57.055Z,45.67
2019-02-12T22:44:27.063Z,40.43
2019-02-12T22:46:57.209Z,42.60
2019-02-12T22:49:27.350Z,43.58
2019-02-12T22:51:58.299Z,34.88
2019-02-12T22:54:28.655Z,42.93
2019-02-12T22:56:58.911Z,36.58
2019-02-12T22:59:28.994Z,42.25
2019-02-12T23:01:59.155Z,37.88
2019-02-12T23:04:29.233Z,37.35
2019-02-12T23:06:59.411Z,30.65
2019-02-12T23:09:29.573Z,34.95
2019-02-12T23:11:59.756Z,35.23
2019-02-12T23:14:29.857Z,31.90
2019-02-12T23:17:00.105Z,28.47
2019-02-12T23:19:32.349Z,32.98
2019-02-12T23:22:02.606Z,29.32
2019-02-12T23:24:32.710Z,31.57
2019-02-12T23:27:02.817Z,32.95
2019-02-12T23:29:33.050Z,32.78
2019-02-12T23:32:03.164Z,32.60
2019-02-12T23:34:33.351Z,29.32
2019-02-12T23:37:03.473Z,30.57
2019-02-12T23:39:33.906Z,34.88
2019-02-12T23:42:04.051Z,28.85
2019-02-12T23:44:35.658Z,28.27
2019-02-12T23:47:05.812Z,34.48
2019-02-12T23:49:36.078Z,35.95
2019-02-12T23:52:06.218Z,31.27
2019-02-12T23:54:36.500Z,36.70
2019-02-12T23:57:06.681Z,35.98
2019-02-12T23:59:36.800Z,37.00
